createdAt,value
2018-06-13T00:01:57.743Z,2.50
2018-06-13T00:04:27.221Z,2.47
2018-06-13T00:06:56.429Z,2.60
2018-06-13T00:09:25.456Z,2.40
2018-06-13T00:11:54.514Z,2.10
2018-06-13T00:14:23.563Z,2.33
2018-06-13T00:16:52.861Z,1.90
2018-06-13T00:19:22.609Z,1.97
2018-06-13T00:21:52.051Z,2.57
2018-06-13T00:24:21.107Z,1.97
2018-06-13T00:26:50.152Z,2.10
2018-06-13T00:29:20.114Z,2.50
2018-06-13T00:31:49.372Z,2.77
2018-06-13T00:34:18.703Z,2.37
2018-06-13T00:36:47.722Z,2.37
2018-06-13T00:39:17.070Z,2.10
2018-06-13T00:41:46.920Z,1.90
2018-06-13T00:44:15.983Z,2.43
2018-06-13T00:46:45.010Z,2.30
2018-06-13T00:49:14.040Z,2.10
2018-06-13T00:51:43.099Z,1.90
2018-06-13T00:54:12.176Z,2.03
2018-06-13T00:56:41.528Z,1.70
2018-06-13T00:59:10.612Z,1.90
2018-06-13T01:01:39.641Z,1.50
2018-06-13T01:04:09.343Z,1.37
2018-06-13T01:06:38.365Z,1.67
2018-06-13T01:09:08.523Z,1.70
2018-06-13T01:11:37.535Z,1.70
2018-06-13T01:14:06.804Z,1.77
2018-06-13T01:16:35.854Z,1.70
2018-06-13T01:19:04.922Z,1.63
2018-06-13T01:21:34.029Z,2.10
2018-06-13T01:24:03.435Z,2.47
2018-06-13T01:26:32.885Z,2.20
2018-06-13T01:29:01.893Z,2.40
2018-06-13T01:31:31.049Z,2.03
2018-06-13T01:34:00.086Z,2.20
2018-06-13T01:36:29.685Z,2.47
2018-06-13T01:38:58.735Z,2.53
2018-06-13T01:41:27.823Z,2.93
2018-06-13T01:43:56.863Z,3.23
2018-06-13T01:46:25.903Z,2.60
2018-06-13T01:48:55.588Z,3.27
2018-06-13T01:51:24.616Z,4.13
2018-06-13T01:53:53.657Z,2.77
2018-06-13T01:56:22.759Z,3.50
2018-06-13T01:58:51.815Z,3.20
2018-06-13T02:01:21.540Z,2.57
2018-06-13T02:03:50.571Z,3.40
2018-06-13T02:06:20.248Z,2.60
2018-06-13T02:08:49.483Z,2.60
2018-06-13T02:11:18.581Z,2.90
2018-06-13T02:13:47.648Z,2.77
2018-06-13T02:16:16.765Z,2.97
2018-06-13T02:18:45.839Z,2.87
2018-06-13T02:21:14.911Z,3.33
2018-06-13T02:23:43.954Z,2.90
2018-06-13T02:26:13.118Z,3.30
2018-06-13T02:28:42.189Z,2.87
2018-06-13T02:31:11.329Z,2.77
2018-06-13T02:33:40.363Z,2.40
2018-06-13T02:36:09.472Z,2.13
2018-06-13T02:38:38.483Z,2.40
2018-06-13T02:41:07.518Z,2.17
2018-06-13T02:43:36.534Z,2.80
2018-06-13T02:46:06.061Z,2.40
2018-06-13T02:48:35.090Z,2.10
2018-06-13T02:51:04.452Z,1.97
2018-06-13T02:53:33.457Z,2.97
2018-06-13T02:56:03.574Z,2.03
2018-06-13T02:58:32.590Z,2.07
2018-06-13T03:14:01.832Z,2.80
2018-06-13T03:16:30.925Z,3.00
2018-06-13T03:19:00.010Z,2.70
2018-06-13T03:21:29.051Z,2.90
2018-06-13T03:23:58.946Z,2.43
2018-06-13T03:26:27.964Z,3.00
2018-06-13T03:28:57.133Z,2.60
2018-06-13T03:31:31.668Z,2.70
2018-06-13T03:34:00.735Z,2.50
2018-06-13T03:36:29.760Z,2.40
2018-06-13T03:38:58.886Z,2.50
2018-06-13T03:41:27.931Z,2.10
2018-06-13T03:43:57.556Z,2.50
2018-06-13T03:46:26.593Z,2.57
2018-06-13T03:48:55.956Z,2.53
2018-06-13T03:51:25.368Z,2.23
2018-06-13T03:53:54.454Z,2.20
2018-06-13T03:56:23.518Z,2.40
2018-06-13T03:58:52.578Z,2.20
2018-06-13T04:01:21.610Z,2.17
2018-06-13T04:03:50.636Z,2.43
2018-06-13T04:06:21.224Z,2.63
2018-06-13T04:08:50.278Z,2.43
2018-06-13T04:11:19.282Z,2.07
2018-06-13T04:13:48.365Z,2.70
2018-06-13T04:16:19.737Z,2.23
2018-06-13T04:18:48.746Z,2.60
2018-06-13T04:21:18.688Z,2.40
2018-06-13T04:23:47.818Z,2.60
2018-06-13T04:26:16.828Z,2.60
2018-06-13T04:28:45.897Z,2.30
2018-06-13T04:31:15.178Z,2.90
2018-06-13T04:33:44.684Z,2.60
2018-06-13T04:36:14.064Z,2.20
2018-06-13T04:38:43.424Z,2.43
2018-06-13T04:41:12.548Z,2.20
2018-06-13T04:43:42.146Z,2.23
2018-06-13T04:46:11.492Z,2.20
2018-06-13T04:48:40.567Z,2.40
2018-06-13T04:51:09.649Z,2.47
2018-06-13T04:53:38.700Z,2.37
2018-06-13T04:56:09.230Z,2.00
2018-06-13T04:58:38.422Z,2.37
2018-06-13T05:01:07.522Z,2.70
2018-06-13T05:03:36.827Z,2.27
2018-06-13T05:06:06.108Z,2.13
2018-06-13T05:08:35.299Z,2.83
2018-06-13T05:11:04.339Z,2.17
2018-06-13T05:13:33.444Z,2.40
2018-06-13T05:16:02.488Z,1.87
2018-06-13T05:18:31.526Z,2.30
2018-06-13T05:21:00.585Z,2.13
2018-06-13T05:23:29.617Z,2.53
2018-06-13T05:25:58.658Z,2.20
2018-06-13T05:28:27.703Z,2.43
2018-06-13T05:30:57.098Z,2.47
2018-06-13T05:33:26.148Z,2.30
2018-06-13T05:35:55.194Z,2.60
2018-06-13T05:38:24.211Z,2.40
2018-06-13T05:40:58.672Z,2.70
2018-06-13T05:43:27.746Z,2.67
2018-06-13T05:45:56.818Z,2.90
2018-06-13T05:48:25.884Z,3.50
2018-06-13T05:50:55.608Z,3.07
2018-06-13T05:53:24.674Z,3.23
2018-06-13T05:55:53.820Z,2.67
2018-06-13T05:58:22.880Z,2.27
2018-06-13T06:00:52.008Z,2.87
2018-06-13T06:03:21.052Z,3.27
2018-06-13T06:05:50.134Z,2.20
2018-06-13T06:08:19.190Z,3.00
2018-06-13T06:10:48.238Z,3.00
2018-06-13T06:13:17.447Z,2.57
2018-06-13T06:15:46.498Z,2.73
2018-06-13T06:18:15.597Z,3.17
2018-06-13T06:20:44.597Z,2.53
2018-06-13T06:23:14.492Z,2.03
2018-06-13T06:25:43.576Z,2.57
2018-06-13T06:28:12.698Z,2.80
2018-06-13T06:30:41.765Z,2.80
2018-06-13T06:33:10.862Z,3.03
2018-06-13T06:35:39.890Z,3.60
2018-06-13T06:38:08.970Z,3.23
2018-06-13T06:40:38.087Z,2.87
2018-06-13T06:43:07.109Z,2.73
2018-06-13T06:45:36.599Z,2.93
2018-06-13T06:48:05.809Z,3.33
2018-06-13T06:50:34.881Z,3.10
2018-06-13T06:53:03.950Z,3.07
2018-06-13T06:55:33.041Z,2.80
2018-06-13T06:58:02.095Z,2.80
2018-06-13T07:00:31.465Z,2.57
2018-06-13T07:03:00.495Z,2.50
2018-06-13T07:05:29.605Z,2.73
2018-06-13T07:07:58.705Z,2.50
2018-06-13T07:10:27.741Z,2.60
2018-06-13T07:12:56.785Z,2.67
2018-06-13T07:15:25.821Z,3.30
2018-06-13T07:17:55.973Z,2.60
2018-06-13T07:20:25.015Z,2.70
2018-06-13T07:22:54.209Z,2.73
2018-06-13T07:25:23.215Z,2.93
2018-06-13T07:27:52.265Z,3.40
2018-06-13T07:30:21.345Z,2.80
2018-06-13T07:32:50.407Z,3.20
2018-06-13T07:35:20.176Z,3.27
2018-06-13T07:37:49.244Z,2.87
2018-06-13T07:40:19.496Z,3.10
2018-06-13T07:42:49.283Z,3.30
2018-06-13T07:45:18.957Z,2.93
2018-06-13T07:47:47.955Z,3.70
2018-06-13T07:50:17.039Z,2.70
2018-06-13T07:52:46.128Z,2.73
2018-06-13T07:55:15.289Z,3.00
2018-06-13T07:57:44.270Z,2.57
2018-06-13T08:00:13.551Z,3.07
2018-06-13T08:02:42.748Z,2.77
2018-06-13T08:05:11.849Z,3.20
2018-06-13T08:07:40.933Z,2.77
2018-06-13T08:10:10.010Z,3.30
2018-06-13T08:12:39.082Z,3.20
2018-06-13T08:15:08.153Z,3.03
2018-06-13T08:17:37.215Z,2.73
2018-06-13T08:20:06.311Z,2.60
2018-06-13T08:22:35.400Z,2.40
2018-06-13T08:25:04.565Z,2.80
2018-06-13T08:27:33.622Z,3.20
2018-06-13T08:30:02.722Z,3.00
2018-06-13T08:32:31.769Z,3.03
2018-06-13T08:35:00.777Z,2.27
2018-06-13T08:37:29.925Z,2.37
2018-06-13T08:39:59.025Z,2.40
2018-06-13T08:42:28.129Z,2.53
2018-06-13T08:44:57.593Z,2.20
2018-06-13T08:47:26.693Z,2.07
2018-06-13T08:49:55.769Z,2.13
2018-06-13T08:52:25.410Z,2.40
2018-06-13T08:54:54.813Z,2.60
2018-06-13T08:57:23.905Z,2.30
2018-06-13T08:59:53.399Z,1.90
2018-06-13T09:02:27.461Z,1.90
2018-06-13T09:04:57.191Z,2.00
2018-06-13T09:07:26.371Z,2.03
2018-06-13T09:09:55.493Z,1.53
2018-06-13T09:12:24.637Z,1.73
2018-06-13T09:14:53.673Z,1.70
2018-06-13T09:17:22.697Z,2.40
2018-06-13T09:19:52.045Z,1.83
2018-06-13T09:22:21.067Z,1.73
2018-06-13T09:24:50.351Z,1.60
2018-06-13T09:27:19.433Z,1.80
2018-06-13T09:29:48.528Z,1.60
2018-06-13T09:32:17.563Z,1.70
2018-06-13T09:34:46.649Z,2.33
2018-06-13T09:37:15.758Z,2.30
2018-06-13T09:39:44.773Z,2.23
2018-06-13T09:42:14.838Z,2.40
2018-06-13T09:44:43.981Z,2.50
2018-06-13T09:47:15.129Z,2.10
2018-06-13T09:49:42.601Z,2.10
2018-06-13T10:05:12.542Z,1.43
2018-06-13T10:07:42.357Z,1.90
2018-06-13T10:10:11.754Z,1.50
2018-06-13T10:12:40.864Z,1.77
2018-06-13T10:28:11.152Z,1.87
2018-06-13T10:30:40.339Z,2.23
2018-06-13T10:33:09.619Z,2.60
2018-06-13T10:35:38.866Z,2.30
2018-06-13T10:38:08.685Z,2.33
2018-06-13T10:40:37.794Z,2.60
2018-06-13T10:43:08.313Z,2.37
2018-06-13T10:45:37.631Z,2.50
2018-06-13T10:48:08.263Z,2.17
2018-06-13T10:50:38.079Z,2.30
2018-06-13T10:53:07.537Z,1.83
2018-06-13T10:55:38.533Z,2.03
2018-06-13T10:58:07.597Z,2.00
2018-06-13T11:00:36.757Z,2.60
2018-06-13T11:03:05.929Z,2.00
2018-06-13T11:05:35.057Z,1.70
2018-06-13T11:08:04.137Z,1.43
2018-06-13T11:10:33.235Z,2.13
2018-06-13T11:13:02.242Z,1.97
2018-06-13T11:15:31.252Z,1.90
2018-06-13T11:18:00.563Z,2.30
2018-06-13T11:20:29.839Z,2.33
2018-06-13T11:22:59.133Z,2.57
2018-06-13T11:25:28.361Z,2.40
2018-06-13T11:27:57.424Z,2.27
2018-06-13T11:30:26.519Z,2.23
2018-06-13T11:32:55.750Z,2.43
2018-06-13T11:35:24.755Z,2.03
2018-06-13T11:37:54.990Z,2.10
2018-06-13T11:40:24.283Z,2.47
2018-06-13T11:42:53.351Z,2.63
2018-06-13T11:45:22.645Z,2.40
2018-06-13T11:47:52.024Z,1.60
2018-06-13T11:50:21.160Z,2.37
2018-06-13T11:52:50.721Z,1.93
2018-06-13T11:55:19.829Z,2.30
2018-06-13T11:57:48.831Z,2.10
2018-06-13T12:00:17.999Z,2.23
2018-06-13T12:02:46.975Z,2.37
2018-06-13T12:05:16.065Z,2.03
2018-06-13T12:07:45.090Z,2.00
2018-06-13T12:10:14.131Z,2.17
2018-06-13T12:12:43.146Z,2.27
2018-06-13T12:15:12.357Z,2.00
2018-06-13T12:17:41.370Z,2.00
2018-06-13T12:20:10.372Z,2.23
2018-06-13T12:22:39.464Z,2.83
2018-06-13T12:25:08.505Z,2.23
2018-06-13T12:27:37.643Z,2.30
2018-06-13T12:30:07.055Z,2.40
2018-06-13T12:32:37.483Z,2.00
2018-06-13T12:35:06.963Z,2.10
2018-06-13T12:37:36.057Z,2.03
2018-06-13T12:40:05.261Z,2.60
2018-06-13T12:42:34.310Z,2.17
2018-06-13T12:45:03.346Z,2.10
2018-06-13T12:47:32.398Z,2.10
2018-06-13T12:50:01.376Z,2.37
2018-06-13T12:52:30.408Z,2.73
2018-06-13T12:54:59.476Z,2.47
2018-06-13T12:57:28.505Z,2.00
2018-06-13T12:59:57.722Z,1.90
2018-06-13T13:02:27.040Z,2.20
2018-06-13T13:04:56.088Z,2.07
2018-06-13T13:07:25.141Z,2.07
2018-06-13T13:09:54.589Z,2.33
2018-06-13T13:12:23.611Z,1.93
2018-06-13T13:14:52.636Z,2.20
2018-06-13T13:17:21.672Z,2.17
2018-06-13T13:19:50.704Z,2.10
2018-06-13T13:22:19.719Z,2.13
2018-06-13T13:24:48.743Z,2.50
2018-06-13T13:27:17.794Z,2.30
2018-06-13T13:29:46.825Z,2.40
2018-06-13T13:32:15.887Z,2.40
2018-06-13T13:34:45.252Z,2.60
2018-06-13T13:37:14.317Z,2.50
2018-06-13T13:39:43.679Z,2.40
2018-06-13T13:42:12.977Z,2.53
2018-06-13T13:44:42.339Z,2.20
2018-06-13T13:47:11.388Z,2.67
2018-06-13T13:49:40.384Z,2.43
2018-06-13T13:52:09.446Z,2.40
2018-06-13T13:54:38.720Z,2.23
2018-06-13T13:57:07.736Z,2.37
2018-06-13T13:59:36.924Z,2.23
2018-06-13T14:02:05.953Z,2.50
2018-06-13T14:04:34.968Z,2.60
2018-06-13T14:07:04.104Z,2.73
2018-06-13T14:09:33.310Z,2.90
2018-06-13T14:12:02.960Z,2.70
2018-06-13T14:14:31.986Z,2.67
2018-06-13T14:17:01.042Z,2.70
2018-06-13T14:19:30.062Z,2.70
2018-06-13T14:21:59.138Z,2.97
2018-06-13T14:24:28.448Z,2.90
2018-06-13T14:26:57.457Z,3.00
2018-06-13T14:29:26.500Z,3.33
2018-06-13T14:32:01.192Z,2.80
2018-06-13T14:34:30.942Z,2.63
2018-06-13T14:36:59.984Z,2.80
2018-06-13T14:39:29.896Z,2.63
2018-06-13T14:41:58.901Z,2.87
2018-06-13T14:44:28.344Z,2.60
2018-06-13T14:46:57.360Z,2.53
2018-06-13T14:49:26.616Z,2.60
2018-06-13T14:51:55.970Z,2.60
2018-06-13T14:54:24.980Z,2.10
2018-06-13T14:56:54.044Z,2.20
2018-06-13T14:59:23.033Z,2.40
2018-06-13T15:01:52.077Z,2.60
2018-06-13T15:04:25.287Z,2.37
2018-06-13T15:06:54.418Z,2.20
2018-06-13T15:09:23.490Z,2.53
2018-06-13T15:11:52.524Z,2.63
2018-06-13T15:14:21.540Z,2.47
2018-06-13T15:16:50.948Z,2.07
2018-06-13T15:19:20.024Z,3.20
2018-06-13T15:21:49.198Z,2.30
2018-06-13T15:24:18.390Z,2.70
2018-06-13T15:26:47.480Z,2.63
2018-06-13T15:29:16.519Z,2.17
2018-06-13T15:31:45.580Z,2.27
2018-06-13T15:34:14.594Z,2.10
2018-06-13T15:36:43.689Z,2.60
2018-06-13T15:39:14.158Z,2.20
2018-06-13T15:41:43.977Z,2.53
2018-06-13T15:44:13.032Z,2.50
2018-06-13T15:46:42.110Z,2.20
2018-06-13T15:49:11.164Z,2.23
2018-06-13T15:51:46.924Z,2.20
2018-06-13T15:54:16.084Z,2.30
2018-06-13T15:56:45.128Z,2.57
2018-06-13T15:59:14.200Z,2.70
2018-06-13T16:01:43.306Z,2.40
2018-06-13T16:04:12.292Z,2.10
2018-06-13T16:06:41.684Z,2.27
2018-06-13T16:09:11.808Z,2.27
2018-06-13T16:11:45.815Z,2.60
2018-06-13T16:14:15.049Z,1.97
2018-06-13T16:16:44.020Z,1.93
2018-06-13T16:19:13.072Z,2.10
2018-06-13T16:21:42.165Z,2.70
2018-06-13T16:24:11.194Z,2.47
2018-06-13T16:26:40.197Z,2.53
2018-06-13T16:29:09.373Z,2.10
2018-06-13T16:31:38.464Z,2.00
2018-06-13T16:34:07.516Z,2.60
2018-06-13T16:49:36.557Z,2.93
2018-06-13T16:52:16.890Z,4.50
2018-06-13T16:55:02.017Z,2.90
2018-06-13T16:57:31.023Z,2.70
2018-06-13T17:00:00.067Z,2.73
2018-06-13T17:02:29.097Z,4.23
2018-06-13T17:04:58.142Z,2.57
2018-06-13T17:07:27.409Z,3.83
2018-06-13T17:09:58.035Z,2.53
2018-06-13T17:12:27.017Z,3.00
2018-06-13T17:14:56.750Z,2.60
2018-06-13T17:17:26.545Z,2.27
2018-06-13T17:19:55.573Z,2.10
2018-06-13T17:22:24.592Z,2.13
2018-06-13T17:37:54.146Z,2.10
2018-06-13T17:40:23.153Z,2.47
2018-06-13T17:42:52.285Z,2.07
2018-06-13T17:45:21.296Z,2.40
2018-06-13T17:47:50.425Z,2.50
2018-06-13T17:50:19.842Z,2.20
2018-06-13T17:52:48.865Z,2.23
2018-06-13T17:55:17.857Z,2.80
2018-06-13T17:57:46.910Z,2.60
2018-06-13T18:00:15.959Z,2.40
2018-06-13T18:02:44.993Z,2.40
2018-06-13T18:05:14.168Z,2.17
2018-06-13T18:07:43.271Z,2.23
2018-06-13T18:10:12.325Z,2.60
2018-06-13T18:12:41.358Z,2.20
2018-06-13T18:15:10.402Z,2.30
2018-06-13T18:17:39.961Z,2.20
2018-06-13T18:20:09.117Z,2.30
2018-06-13T18:22:38.121Z,2.70
2018-06-13T18:25:07.127Z,2.40
2018-06-13T18:27:36.173Z,2.90
2018-06-13T18:30:05.504Z,2.50
2018-06-13T18:32:34.516Z,2.57
2018-06-13T18:35:03.658Z,2.13
2018-06-13T18:37:32.714Z,2.40
2018-06-13T18:40:01.768Z,2.20
2018-06-13T18:42:31.125Z,2.30
2018-06-13T18:45:01.179Z,2.40
2018-06-13T18:47:30.308Z,2.20
2018-06-13T18:49:59.321Z,2.10
2018-06-13T18:52:28.320Z,2.20
2018-06-13T18:54:57.612Z,2.50
2018-06-13T18:57:26.720Z,2.60
2018-06-13T18:59:55.716Z,2.83
2018-06-13T19:02:24.712Z,2.37
2018-06-13T19:04:53.790Z,2.20
2018-06-13T19:07:22.806Z,2.53
2018-06-13T19:09:51.854Z,2.30
2018-06-13T19:12:20.950Z,2.40
2018-06-13T19:14:49.969Z,2.70
2018-06-13T19:17:18.983Z,2.37
2018-06-13T19:19:48.156Z,2.70
2018-06-13T19:22:17.160Z,2.10
2018-06-13T19:24:46.192Z,2.33
2018-06-13T19:27:15.218Z,2.33
2018-06-13T19:29:45.201Z,2.53
2018-06-13T19:32:14.689Z,2.90
2018-06-13T19:34:43.770Z,2.60
2018-06-13T19:37:12.786Z,2.47
2018-06-13T19:39:43.074Z,2.23
2018-06-13T19:42:12.602Z,2.60
2018-06-13T19:44:41.887Z,2.57
2018-06-13T19:47:16.263Z,3.03
2018-06-13T19:49:45.618Z,2.97
2018-06-13T19:52:14.888Z,2.40
2018-06-13T19:54:49.745Z,2.80
2018-06-13T19:57:18.804Z,2.73
2018-06-13T19:59:47.872Z,2.80
2018-06-13T20:02:16.872Z,2.53
2018-06-13T20:04:52.228Z,2.43
2018-06-13T20:07:21.401Z,2.50
2018-06-13T20:09:50.427Z,3.03
2018-06-13T20:12:55.849Z,2.47
2018-06-13T20:15:30.288Z,2.63
2018-06-13T20:19:04.022Z,3.13
2018-06-13T20:21:33.163Z,3.13
2018-06-13T20:24:02.154Z,3.57
2018-06-13T20:26:36.532Z,3.73
2018-06-13T20:30:13.137Z,3.53
2018-06-13T20:32:42.310Z,3.40
2018-06-13T20:35:11.328Z,4.50
2018-06-13T20:37:40.478Z,3.63
2018-06-13T20:40:09.688Z,3.80
2018-06-13T20:42:38.712Z,3.97
2018-06-13T20:45:07.838Z,3.73
2018-06-13T20:47:36.887Z,3.77
2018-06-13T20:50:06.110Z,3.20
2018-06-13T20:52:35.150Z,2.73
2018-06-13T20:55:04.284Z,3.30
2018-06-13T20:57:33.378Z,3.20
2018-06-13T21:00:02.482Z,3.67
2018-06-13T21:02:31.546Z,3.37
2018-06-13T21:05:00.590Z,3.83
2018-06-13T21:07:35.316Z,3.10
2018-06-13T21:10:04.481Z,3.37
2018-06-13T21:12:33.570Z,3.53
2018-06-13T21:15:02.688Z,3.10
2018-06-13T21:17:31.712Z,3.00
2018-06-13T21:20:00.773Z,3.03
2018-06-13T21:22:29.924Z,3.07
2018-06-13T21:24:59.224Z,3.20
2018-06-13T21:27:28.294Z,3.30
2018-06-13T21:29:57.356Z,3.50
2018-06-13T21:32:26.548Z,3.10
2018-06-13T21:34:56.310Z,3.00
2018-06-13T21:37:25.354Z,3.30
2018-06-13T21:39:54.476Z,3.73
2018-06-13T21:42:24.276Z,3.17
2018-06-13T21:44:53.330Z,3.00
2018-06-13T21:47:22.368Z,3.23
2018-06-13T21:49:51.396Z,3.10
2018-06-13T21:52:20.432Z,2.87
2018-06-13T21:54:49.504Z,2.70
2018-06-13T21:57:18.585Z,3.17
2018-06-13T21:59:47.863Z,3.10
2018-06-13T22:02:17.153Z,3.00
2018-06-13T22:04:46.192Z,3.43
2018-06-13T22:07:15.337Z,2.90
2018-06-13T22:09:44.371Z,3.10
2018-06-13T22:12:13.905Z,3.20
2018-06-13T22:14:43.018Z,3.10
2018-06-13T22:17:12.077Z,2.73
2018-06-13T22:19:41.780Z,2.77
2018-06-13T22:22:10.805Z,3.40
2018-06-13T22:24:39.823Z,3.00
2018-06-13T22:27:08.832Z,3.20
2018-06-13T22:29:38.506Z,3.27
2018-06-13T22:32:08.457Z,2.97
2018-06-13T22:34:37.571Z,3.33
2018-06-13T22:37:06.806Z,2.60
2018-06-13T22:39:36.088Z,3.57
2018-06-13T22:42:05.373Z,3.03
2018-06-13T22:44:34.913Z,3.83
2018-06-13T22:47:03.934Z,3.70
2018-06-13T22:49:32.977Z,4.10
2018-06-13T22:52:02.059Z,3.33
2018-06-13T22:54:31.064Z,3.50
2018-06-13T22:57:00.109Z,3.37
2018-06-13T22:59:29.166Z,2.77
2018-06-13T23:01:58.295Z,3.30
2018-06-13T23:04:28.254Z,2.80
2018-06-13T23:06:57.261Z,2.70
2018-06-13T23:09:27.015Z,3.10
2018-06-13T23:11:56.020Z,3.03
2018-06-13T23:14:25.033Z,2.70
2018-06-13T23:16:54.083Z,2.60
2018-06-13T23:19:23.110Z,2.60
2018-06-13T23:21:53.021Z,2.77
2018-06-13T23:24:22.058Z,2.80
2018-06-13T23:26:51.205Z,2.70
2018-06-13T23:29:20.317Z,2.67
2018-06-13T23:31:49.307Z,3.13
2018-06-13T23:34:18.324Z,2.70
2018-06-13T23:36:47.686Z,2.87
2018-06-13T23:39:16.669Z,2.67
2018-06-13T23:41:45.693Z,2.90
2018-06-13T23:44:16.161Z,2.80
2018-06-13T23:46:45.553Z,3.60
2018-06-13T23:49:14.533Z,2.90
2018-06-13T23:51:43.517Z,3.13
2018-06-13T23:54:12.547Z,2.93
2018-06-13T23:56:41.577Z,2.80
2018-06-13T23:59:10.593Z,2.93
